Time;durP1;ratioP1;P1;durP2;ratioP2;P2;SDS_P1;SDS_P2;PMS_P1;PMS_P2;Temp;Humidity;BMP_temperature;BMP_pressure;BME280_temperature;BME280_humidity;BME280_pressure;Samples;Min_cycle;Max_cycle;Signal;HPM_P1;HPM_P2
2023/02/01 00:02:13;;;;;;;2.20;1.77;;;;;;;1.17;100.00;96457.34;5102763;28;24546;-74
2023/02/01 00:04:39;;;;;;;1.95;1.63;;;;;;;1.16;100.00;96450.56;5087418;28;24453;-73
2023/02/01 00:07:06;;;;;;;1.98;1.45;;;;;;;1.11;100.00;96452.34;5098293;28;24477;-73
2023/02/01 00:09:33;;;;;;;2.72;2.08;;;;;;;1.08;100.00;96449.84;5092337;28;24821;-74
2023/02/01 00:12:01;;;;;;;2.15;1.73;;;;;;;1.12;100.00;96450.63;5092284;28;24455;-74
2023/02/01 00:14:30;;;;;;;2.53;1.63;;;;;;;1.14;100.00;96448.88;5086878;28;25085;-74
2023/02/01 00:16:56;;;;;;;2.50;1.95;;;;;;;1.18;100.00;96448.81;5102492;28;24440;-74
2023/02/01 00:19:23;;;;;;;2.70;1.90;;;;;;;1.25;100.00;96443.63;5097011;28;24433;-74
2023/02/01 00:21:49;;;;;;;2.00;1.70;;;;;;;1.21;100.00;96441.13;5097388;28;24445;-74
2023/02/01 00:24:16;;;;;;;2.25;1.60;;;;;;;1.18;100.00;96443.72;5095877;28;24453;-74
2023/02/01 00:26:44;;;;;;;2.38;1.92;;;;;;;1.16;100.00;96450.56;5094339;28;24450;-74
2023/02/01 00:29:12;;;;;;;2.47;1.67;;;;;;;1.16;100.00;96439.53;5099905;28;24444;-74
2023/02/01 00:31:40;;;;;;;4.10;1.90;;;;;;;1.24;100.00;96431.75;5109321;28;24440;-73
2023/02/01 00:34:08;;;;;;;2.40;1.65;;;;;;;1.25;100.00;96433.41;5107503;28;24441;-73
2023/02/01 00:36:35;;;;;;;1.60;1.48;;;;;;;1.29;100.00;96419.75;5094599;28;24825;-73
2023/02/01 00:39:01;;;;;;;2.10;1.55;;;;;;;1.31;100.00;96420.56;5103418;28;24430;-74
2023/02/01 00:41:28;;;;;;;1.85;1.60;;;;;;;1.23;100.00;96420.69;5098173;28;24434;-74
2023/02/01 00:43:54;;;;;;;2.20;1.60;;;;;;;1.21;100.00;96417.31;5103427;28;24864;-73
2023/02/01 00:46:21;;;;;;;2.42;1.77;;;;;;;1.20;100.00;96408.81;5105140;28;24495;-73
2023/02/01 00:48:49;;;;;;;2.05;1.65;;;;;;;1.35;100.00;96409.44;5101300;28;24433;-73
2023/02/01 00:51:18;;;;;;;1.70;1.60;;;;;;;1.25;100.00;96411.28;5108288;28;24445;-73
2023/02/01 00:53:45;;;;;;;1.58;1.33;;;;;;;1.24;100.00;96406.22;5109426;28;24437;-73
2023/02/01 00:56:12;;;;;;;2.47;1.40;;;;;;;1.16;100.00;96411.47;5105053;28;24430;-74
2023/02/01 00:58:39;;;;;;;1.63;1.50;;;;;;;1.17;100.00;96416.53;5103116;28;24440;-74
2023/02/01 01:01:07;;;;;;;2.90;1.58;;;;;;;1.17;100.00;96421.63;5105348;28;24449;-73
2023/02/01 01:03:36;;;;;;;1.90;1.58;;;;;;;1.16;100.00;96409.75;5100377;28;24438;-73
2023/02/01 01:06:06;;;;;;;1.70;1.45;;;;;;;1.12;100.00;96412.38;5106146;28;24476;-73
2023/02/01 01:08:33;;;;;;;1.20;1.00;;;;;;;1.18;100.00;96415.66;5106885;28;24803;-73
2023/02/01 01:11:04;;;;;;;2.05;1.42;;;;;;;1.19;100.00;96411.41;5089555;28;24438;-73
2023/02/01 01:13:30;;;;;;;1.80;1.35;;;;;;;1.20;100.00;96400.34;5095857;28;24438;-74
2023/02/01 01:15:57;;;;;;;1.40;1.10;;;;;;;1.19;100.00;96391.00;5094711;28;24484;-73
2023/02/01 01:18:23;;;;;;;1.30;1.20;;;;;;;1.19;100.00;96384.19;5109346;28;24791;-73
2023/02/01 01:20:50;;;;;;;1.45;1.10;;;;;;;1.21;100.00;96391.81;5104472;28;25018;-73
2023/02/01 01:23:17;;;;;;;1.70;1.45;;;;;;;1.18;100.00;96387.56;5104114;28;25234;-73
2023/02/01 01:25:44;;;;;;;1.58;1.23;;;;;;;1.23;100.00;96382.44;5104278;28;24990;-73
2023/02/01 01:28:10;;;;;;;1.55;1.17;;;;;;;1.31;100.00;96372.09;5107794;28;25234;-73
2023/02/01 01:30:37;;;;;;;1.30;1.02;;;;;;;1.27;100.00;96375.56;5101909;28;24433;-74
2023/02/01 01:33:03;;;;;;;1.58;1.10;;;;;;;1.27;100.00;96378.13;5099520;28;24995;-74
2023/02/01 01:35:31;;;;;;;2.13;1.27;;;;;;;1.27;100.00;96380.66;5109427;28;24437;-74
2023/02/01 01:37:58;;;;;;;1.20;0.95;;;;;;;1.29;100.00;96392.50;5094615;28;24865;-74
2023/02/01 01:40:26;;;;;;;1.33;1.10;;;;;;;1.37;100.00;96389.81;5105114;28;24816;-73
2023/02/01 01:42:54;;;;;;;1.05;0.90;;;;;;;1.43;100.00;96384.63;5100727;28;24441;-73
2023/02/01 01:45:24;;;;;;;1.27;0.90;;;;;;;1.38;100.00;96389.00;5103366;28;24438;-73
2023/02/01 01:47:54;;;;;;;1.10;0.90;;;;;;;1.35;100.00;96376.28;5093946;28;24463;-74
2023/02/01 01:50:27;;;;;;;1.15;0.90;;;;;;;1.37;100.00;96390.69;5104290;28;24522;-73
2023/02/01 01:52:56;;;;;;;1.17;0.90;;;;;;;1.32;100.00;96377.16;5100009;28;25002;-74
2023/02/01 01:55:25;;;;;;;1.50;1.10;;;;;;;1.29;100.00;96378.91;5090422;28;24436;-73
2023/02/01 01:57:58;;;;;;;1.33;1.13;;;;;;;1.28;100.00;96372.13;5103600;28;24471;-74
2023/02/01 02:00:25;;;;;;;1.13;0.90;;;;;;;1.30;100.00;96362.72;5098198;28;24461;-74
2023/02/01 02:02:57;;;;;;;1.10;1.00;;;;;;;1.35;100.00;96368.63;5102262;28;24530;-74
2023/02/01 02:05:24;;;;;;;1.52;1.08;;;;;;;1.27;100.00;96368.75;5106759;28;24444;-73
2023/02/01 02:07:53;;;;;;;1.55;1.02;;;;;;;1.28;100.00;96369.59;5104900;28;24449;-74
2023/02/01 02:10:20;;;;;;;1.30;0.93;;;;;;;1.34;100.00;96360.13;5097502;28;24437;-73
2023/02/01 02:12:49;;;;;;;0.88;0.80;;;;;;;1.32;100.00;96363.56;5095716;28;24453;-74
2023/02/01 02:15:17;;;;;;;1.25;1.10;;;;;;;1.35;100.00;96350.75;5098444;28;25169;-73
2023/02/01 02:17:54;;;;;;;0.75;0.75;;;;;;;1.41;100.00;96346.38;5103309;28;24531;-74
2023/02/01 02:20:50;;;;;;;2.03;0.90;;;;;;;1.43;100.00;96359.09;5098529;28;24437;-75
2023/02/01 02:23:44;;;;;;;0.95;0.85;;;;;;;1.49;100.00;96356.47;5104287;28;24445;-73
2023/02/01 02:26:45;;;;;;;1.60;1.00;;;;;;;1.49;100.00;96353.91;5056811;28;24442;-73
2023/02/01 02:30:02;;;;;;;1.38;0.98;;;;;;;1.41;100.00;96355.75;5097691;28;24449;-74
2023/02/01 02:32:48;;;;;;;1.30;1.15;;;;;;;1.46;100.00;96348.84;5105181;28;24441;-74
2023/02/01 02:35:24;;;;;;;1.45;0.90;;;;;;;1.48;100.00;96352.19;5100429;28;24438;-74
2023/02/01 02:38:00;;;;;;;1.90;0.97;;;;;;;1.45;100.00;96349.72;5099971;28;24982;-73
2023/02/01 02:40:33;;;;;;;1.50;1.10;;;;;;;1.44;100.00;96348.03;5088121;28;24430;-74
2023/02/01 02:49:05;;;;;;;1.23;1.08;;;;;;;1.44;100.00;96343.75;5092248;28;25391;-74
2023/02/01 03:05:33;;;;;;;0.82;0.80;;;;;;;1.50;100.00;96342.81;5094838;28;24441;-74
2023/02/01 03:08:10;;;;;;;0.93;0.80;;;;;;;1.52;100.00;96336.00;5101107;28;24457;-74
2023/02/01 03:10:44;;;;;;;1.50;1.02;;;;;;;1.48;100.00;96342.00;5085558;28;24907;-74
2023/02/01 03:13:14;;;;;;;1.15;1.00;;;;;;;1.51;100.00;96347.03;5098759;28;24449;-74
2023/02/01 03:15:46;;;;;;;1.23;1.08;;;;;;;1.44;100.00;96351.41;5094417;28;24434;-74
2023/02/01 03:18:17;;;;;;;0.90;0.80;;;;;;;1.48;100.00;96349.66;5103118;28;24437;-74
2023/02/01 03:20:47;;;;;;;1.05;0.85;;;;;;;1.41;100.00;96353.22;5099486;28;24428;-74
2023/02/01 03:23:19;;;;;;;0.90;0.80;;;;;;;1.72;100.00;96353.47;5099216;28;24984;-73
2023/02/01 03:25:49;;;;;;;1.30;0.93;;;;;;;1.71;100.00;96351.81;5102560;28;24438;-74
2023/02/01 03:28:19;;;;;;;2.42;0.98;;;;;;;1.50;100.00;96352.19;5086809;28;24458;-74
2023/02/01 03:30:46;;;;;;;1.13;0.90;;;;;;;1.50;100.00;96342.81;5102429;28;24536;-74
2023/02/01 03:33:21;;;;;;;1.20;1.10;;;;;;;1.73;100.00;96329.63;5105080;28;24856;-74
2023/02/01 03:35:55;;;;;;;0.95;0.82;;;;;;;1.68;100.00;96326.31;5102570;28;24824;-74
2023/02/01 03:38:28;;;;;;;1.30;0.70;;;;;;;1.72;100.00;96320.28;5098207;28;24426;-74
2023/02/01 03:40:59;;;;;;;1.60;1.20;;;;;;;1.83;100.00;96322.63;5101467;28;24426;-75
2023/02/01 03:43:30;;;;;;;1.33;1.02;;;;;;;1.67;100.00;96328.03;5097830;28;24453;-74
2023/02/01 03:46:03;;;;;;;1.45;1.00;;;;;;;1.66;100.00;96312.72;5093704;28;24432;-74
2023/02/01 03:48:31;;;;;;;0.83;0.80;;;;;;;1.70;100.00;96304.97;5096186;28;24452;-74
2023/02/01 03:51:01;;;;;;;1.15;0.93;;;;;;;1.68;100.00;96305.91;5101344;28;24429;-74
2023/02/01 03:53:30;;;;;;;1.35;0.93;;;;;;;1.65;100.00;96294.03;5092507;28;24790;-73
2023/02/01 03:55:58;;;;;;;1.40;1.00;;;;;;;1.72;100.00;96281.16;5093829;28;24551;-73
2023/02/01 03:58:24;;;;;;;1.00;0.80;;;;;;;1.74;100.00;96289.59;5094721;28;25171;-73
2023/02/01 04:00:54;;;;;;;1.88;1.05;;;;;;;1.67;100.00;96299.94;5096628;28;24470;-74
2023/02/01 04:03:21;;;;;;;1.48;1.02;;;;;;;1.65;100.00;96317.00;5100011;28;24433;-73
2023/02/01 04:05:47;;;;;;;1.75;1.20;;;;;;;1.66;100.00;96303.34;5096960;28;24974;-74
2023/02/01 04:08:14;;;;;;;1.20;0.90;;;;;;;1.65;100.00;96286.34;5100463;28;24449;-73
2023/02/01 04:10:42;;;;;;;1.45;0.90;;;;;;;1.63;100.00;96306.00;5094774;28;24430;-73
2023/02/01 04:13:09;;;;;;;1.90;1.10;;;;;;;1.62;100.00;96306.00;5096023;28;24505;-73
2023/02/01 04:15:35;;;;;;;0.85;0.70;;;;;;;1.64;100.00;96307.66;5094455;28;24449;-73
2023/02/01 04:18:02;;;;;;;0.82;0.80;;;;;;;1.61;100.00;96320.47;5102360;28;24434;-74
2023/02/01 04:20:28;;;;;;;0.85;0.80;;;;;;;1.65;100.00;96303.41;5099487;28;24441;-74
2023/02/01 04:22:55;;;;;;;1.23;0.93;;;;;;;1.68;100.00;96308.44;5094591;28;24436;-74
2023/02/01 04:25:22;;;;;;;1.13;0.80;;;;;;;1.66;100.00;96307.63;5104859;28;24442;-74
2023/02/01 04:27:50;;;;;;;1.40;0.93;;;;;;;1.73;100.00;96308.34;5094522;28;24812;-74
2023/02/01 04:30:17;;;;;;;1.95;1.02;;;;;;;1.76;100.00;96303.19;5099059;28;24438;-74
2023/02/01 04:32:43;;;;;;;2.37;0.97;;;;;;;1.83;100.00;96305.59;5103433;28;24508;-74
2023/02/01 04:35:11;;;;;;;1.00;0.88;;;;;;;1.87;100.00;96301.25;5087294;28;24426;-73
2023/02/01 04:37:38;;;;;;;1.25;0.93;;;;;;;1.79;100.00;96321.00;5101503;28;24440;-74
2023/02/01 04:40:05;;;;;;;1.38;0.93;;;;;;;1.77;100.00;96320.19;5097192;28;24430;-73
2023/02/01 04:42:31;;;;;;;1.48;0.85;;;;;;;1.70;100.00;96322.00;5101041;28;24440;-74
2023/02/01 04:44:59;;;;;;;1.75;1.00;;;;;;;1.70;100.00;96327.13;5094142;28;24445;-74
2023/02/01 04:47:26;;;;;;;1.37;0.93;;;;;;;1.74;100.00;96321.06;5094265;28;24452;-74
2023/02/01 04:49:52;;;;;;;1.33;1.08;;;;;;;1.79;100.00;96306.53;5095983;28;24434;-74
2023/02/01 04:52:19;;;;;;;1.30;1.00;;;;;;;1.80;100.00;96294.59;5098232;28;24437;-74
2023/02/01 04:54:45;;;;;;;1.20;0.90;;;;;;;1.81;100.00;96292.00;5089382;28;24442;-74
2023/02/01 04:57:13;;;;;;;2.00;1.20;;;;;;;1.83;100.00;96292.81;5093730;28;24442;-74
2023/02/01 04:59:40;;;;;;;1.33;1.10;;;;;;;1.82;100.00;96280.94;5085453;28;24503;-74
2023/02/01 05:02:08;;;;;;;1.73;1.20;;;;;;;1.79;100.00;96275.03;5098069;28;24903;-73
2023/02/01 05:04:35;;;;;;;1.52;0.90;;;;;;;1.74;100.00;96280.22;5096643;28;24445;-73
2023/02/01 05:07:01;;;;;;;1.20;0.90;;;;;;;1.78;100.00;96278.44;5103210;28;24437;-73
2023/02/01 05:09:28;;;;;;;1.23;1.05;;;;;;;1.79;100.00;96273.31;5088440;28;24442;-74
2023/02/01 05:14:38;;;;;;;2.30;1.20;;;;;;;1.69;100.00;96305.84;5092359;28;24440;-74
2023/02/01 05:17:04;;;;;;;1.80;1.00;;;;;;;1.75;100.00;96297.25;5093110;28;24434;-76
2023/02/01 05:19:32;;;;;;;4.13;2.63;;;;;;;1.72;100.00;96299.84;5094352;28;24520;-76
2023/02/01 05:21:59;;;;;;;14.25;10.65;;;;;;;1.75;100.00;96299.81;5096422;28;24433;-75
2023/02/01 05:24:26;;;;;;;9.82;6.95;;;;;;;1.74;100.00;96312.59;5107891;28;24666;-75
2023/02/01 05:26:53;;;;;;;10.85;6.32;;;;;;;1.77;100.00;96304.88;5093803;28;24800;-76
2023/02/01 05:29:20;;;;;;;2.30;1.20;;;;;;;1.80;100.00;96320.97;5091471;28;24454;-74
2023/02/01 05:31:47;;;;;;;1.98;1.30;;;;;;;1.79;100.00;96336.34;5108801;28;24441;-76
2023/02/01 05:34:14;;;;;;;3.10;1.40;;;;;;;1.82;100.00;96332.00;5100830;28;24442;-76
2023/02/01 05:36:42;;;;;;;2.58;1.00;;;;;;;1.93;100.00;96322.41;5084973;28;24449;-76
2023/02/01 05:39:10;;;;;;;1.90;1.02;;;;;;;2.24;100.00;96323.50;5092774;28;24441;-76
2023/02/01 05:41:36;;;;;;;2.67;1.38;;;;;;;2.29;100.00;96334.44;5090535;28;24813;-76
2023/02/01 05:44:03;;;;;;;3.25;1.50;;;;;;;2.38;100.00;96331.72;5100402;28;24441;-76
2023/02/01 05:46:29;;;;;;;2.38;1.42;;;;;;;2.40;100.00;96337.63;5100166;28;24490;-78
2023/02/01 05:48:56;;;;;;;3.33;1.52;;;;;;;2.21;100.00;96349.94;5093582;28;24446;-75
2023/02/01 05:51:22;;;;;;;2.30;1.30;;;;;;;2.24;100.00;96352.44;5105678;28;24445;-77
2023/02/01 05:53:50;;;;;;;2.92;1.42;;;;;;;2.34;100.00;96346.28;5100888;28;24445;-76
2023/02/01 05:56:17;;;;;;;5.75;3.20;;;;;;;2.37;100.00;96342.78;5100164;28;24430;-77
2023/02/01 05:58:43;;;;;;;4.97;2.00;;;;;;;2.33;100.00;96341.19;5095742;28;24438;-76
2023/02/01 06:01:09;;;;;;;2.80;1.90;;;;;;;2.51;100.00;96333.13;5101358;28;24426;-77
2023/02/01 06:03:36;;;;;;;3.50;2.08;;;;;;;2.51;100.00;96345.06;5094665;28;24448;-77
2023/02/01 06:06:03;;;;;;;5.57;1.73;;;;;;;2.47;100.00;96346.00;5102506;28;24851;-75
2023/02/01 06:08:30;;;;;;;4.47;2.27;;;;;;;2.36;100.00;96346.22;5097996;28;24457;-77
2023/02/01 06:11:03;;;;;;;3.85;2.30;;;;;;;2.37;100.00;96342.78;5095264;28;24430;-77
2023/02/01 06:13:29;;;;;;;4.05;2.53;;;;;;;2.42;100.00;96348.66;5104618;28;24816;-76
2023/02/01 06:15:58;;;;;;;3.45;2.30;;;;;;;2.47;100.00;96338.34;5088814;28;24969;-77
2023/02/01 06:18:24;;;;;;;5.78;2.40;;;;;;;2.49;100.00;96340.00;5109052;28;24998;-77
2023/02/01 06:20:54;;;;;;;4.10;2.57;;;;;;;2.46;100.00;96327.28;5092838;28;24445;-76
2023/02/01 06:23:23;;;;;;;6.97;2.67;;;;;;;2.41;100.00;96312.03;5104354;28;24444;-77
2023/02/01 06:25:50;;;;;;;5.18;2.25;;;;;;;2.58;100.00;96306.53;5094540;28;25038;-77
2023/02/01 06:28:18;;;;;;;6.50;2.78;;;;;;;2.57;100.00;96322.75;5101510;28;24983;-76
2023/02/01 06:30:45;;;;;;;4.40;2.40;;;;;;;2.51;100.00;96322.88;5097287;28;24430;-77
2023/02/01 06:33:14;;;;;;;4.70;2.60;;;;;;;2.59;100.00;96328.66;5098805;28;24583;-77
2023/02/01 06:35:41;;;;;;;5.40;2.55;;;;;;;2.55;100.00;96319.38;5093027;28;24457;-76
2023/02/01 06:38:07;;;;;;;5.82;2.80;;;;;;;2.55;100.00;96319.38;5085892;28;24854;-76
2023/02/01 06:40:35;;;;;;;6.03;2.63;;;;;;;2.47;100.00;96321.28;5101041;28;24448;-74
2023/02/01 06:43:01;;;;;;;5.35;2.80;;;;;;;2.47;100.00;96312.78;5103034;28;24491;-77
2023/02/01 06:45:29;;;;;;;5.72;2.72;;;;;;;2.41;100.00;96321.41;5090190;28;24440;-77
2023/02/01 06:47:56;;;;;;;4.80;2.60;;;;;;;2.53;100.00;96315.19;5100316;28;24806;-77
2023/02/01 06:50:22;;;;;;;6.68;2.80;;;;;;;2.53;100.00;96322.88;5096434;28;24441;-76
2023/02/01 06:52:49;;;;;;;5.82;2.80;;;;;;;2.55;100.00;96334.72;5094421;28;24461;-77
2023/02/01 06:55:15;;;;;;;6.10;3.15;;;;;;;2.59;100.00;96322.72;5097726;28;24434;-77
2023/02/01 06:57:42;;;;;;;5.73;3.00;;;;;;;2.67;100.00;96321.69;5094337;28;24801;-78
2023/02/01 07:00:09;;;;;;;4.17;2.40;;;;;;;2.64;100.00;96310.69;5099542;28;25102;-77
2023/02/01 07:02:38;;;;;;;6.32;2.60;;;;;;;2.66;100.00;96325.09;5105786;28;24437;-74
2023/02/01 07:05:05;;;;;;;7.45;3.10;;;;;;;2.64;100.00;96308.97;5099814;28;24998;-75
2023/02/01 07:07:32;;;;;;;5.20;2.83;;;;;;;2.56;100.00;96312.53;5098468;28;24452;-75
2023/02/01 07:09:58;;;;;;;7.68;3.58;;;;;;;2.48;100.00;96327.22;5101045;28;24480;-75
2023/02/01 07:12:25;;;;;;;6.90;3.03;;;;;;;2.56;100.00;96330.44;5096112;28;24437;-74
2023/02/01 07:14:51;;;;;;;9.32;2.83;;;;;;;2.62;100.00;96350.78;5098847;28;24444;-74
2023/02/01 07:17:18;;;;;;;7.78;2.42;;;;;;;2.57;100.00;96370.50;5099676;28;24434;-75
2023/02/01 07:19:45;;;;;;;6.63;2.70;;;;;;;2.52;100.00;96375.72;5095033;28;24492;-76
2023/02/01 07:22:12;;;;;;;7.18;2.78;;;;;;;2.53;100.00;96384.25;5101028;28;24462;-79
2023/02/01 07:24:38;;;;;;;8.75;4.15;;;;;;;2.53;100.00;96379.97;5101589;28;24449;-75
2023/02/01 07:27:05;;;;;;;7.82;3.47;;;;;;;2.50;100.00;96382.56;5090370;28;24429;-75
2023/02/01 07:29:32;;;;;;;4.95;2.50;;;;;;;2.63;100.00;96383.13;5089535;28;24450;-76
2023/02/01 07:32:00;;;;;;;6.43;2.57;;;;;;;2.54;100.00;96399.53;5098988;28;24440;-76
2023/02/01 07:34:26;;;;;;;8.82;3.15;;;;;;;2.57;100.00;96398.63;5097140;28;24494;-77
2023/02/01 07:36:54;;;;;;;5.97;3.33;;;;;;;2.59;100.00;96391.75;5085046;28;24829;-77
2023/02/01 07:39:21;;;;;;;10.55;3.00;;;;;;;2.85;100.00;96394.56;5099774;28;24422;-77
2023/02/01 07:41:47;;;;;;;9.40;2.85;;;;;;;2.82;100.00;96397.22;5087013;28;25026;-76
2023/02/01 07:44:14;;;;;;;11.02;3.08;;;;;;;2.73;100.00;96399.97;5095877;28;25026;-78
2023/02/01 07:46:40;;;;;;;10.38;4.82;;;;;;;2.70;100.00;96388.97;5093986;28;24438;-78
2023/02/01 07:49:07;;;;;;;10.75;4.20;;;;;;;2.68;100.00;96383.91;5103049;28;24449;-77
2023/02/01 07:51:33;;;;;;;12.98;3.30;;;;;;;2.85;100.00;96383.50;5092646;28;24433;-76
2023/02/01 07:54:01;;;;;;;15.15;6.40;;;;;;;2.91;100.00;96385.94;5087955;28;24426;-75
2023/02/01 07:56:28;;;;;;;11.88;4.50;;;;;;;2.96;100.00;96373.03;5089171;28;25013;-75
2023/02/01 07:58:55;;;;;;;9.82;3.65;;;;;;;2.90;100.00;96366.34;5089922;28;24785;-77
2023/02/01 08:01:24;;;;;;;11.45;4.00;;;;;;;2.95;100.00;96371.34;5104170;28;25053;-76
2023/02/01 08:03:52;;;;;;;12.30;5.57;;;;;;;2.95;100.00;96367.06;5096192;28;24810;-77
2023/02/01 08:06:20;;;;;;;10.13;3.88;;;;;;;2.97;100.00;96364.50;5111913;28;24461;-77
2023/02/01 08:08:46;;;;;;;12.13;3.80;;;;;;;2.96;100.00;96375.59;5094279;28;24889;-76
2023/02/01 08:11:15;;;;;;;17.90;3.47;;;;;;;2.98;100.00;96369.56;5089736;28;24431;-78
2023/02/01 08:13:42;;;;;;;12.40;4.47;;;;;;;2.91;100.00;96365.47;5096336;28;24805;-77
2023/02/01 08:16:10;;;;;;;11.40;4.53;;;;;;;2.93;100.00;96363.72;5097666;28;24439;-75
2023/02/01 08:18:38;;;;;;;11.52;3.92;;;;;;;2.89;100.00;96368.06;5099633;28;24446;-77
2023/02/01 08:21:06;;;;;;;13.43;5.95;;;;;;;2.91;100.00;96363.75;5096168;28;25016;-77
2023/02/01 08:23:33;;;;;;;15.50;7.22;;;;;;;2.82;100.00;96368.25;5102280;28;24445;-76
2023/02/01 08:26:08;;;;;;;9.15;4.40;;;;;;;2.79;100.00;96368.31;5104125;28;24436;-76
2023/02/01 08:28:36;;;;;;;16.63;8.38;;;;;;;2.87;100.00;96371.53;5088900;28;24476;-77
2023/02/01 08:31:08;;;;;;;13.52;4.63;;;;;;;2.93;100.00;96373.97;5096224;28;24442;-77
2023/02/01 08:33:35;;;;;;;15.27;3.75;;;;;;;2.92;100.00;96373.09;5094515;28;24445;-77
2023/02/01 08:36:02;;;;;;;10.00;3.92;;;;;;;2.90;100.00;96377.44;5092154;28;24502;-75
2023/02/01 08:38:29;;;;;;;13.82;3.83;;;;;;;3.01;100.00;96378.91;5094578;28;25023;-77
2023/02/01 08:40:56;;;;;;;11.20;3.50;;;;;;;3.07;100.00;96373.63;5093885;28;24460;-77
2023/02/01 08:43:23;;;;;;;8.65;3.47;;;;;;;3.08;100.00;96383.84;5093054;28;24449;-77
2023/02/01 08:45:51;;;;;;;9.25;2.97;;;;;;;3.11;100.00;96393.13;5100346;28;24796;-77
2023/02/01 08:48:17;;;;;;;11.30;3.63;;;;;;;3.11;100.00;96391.41;5090339;28;24431;-72
2023/02/01 08:50:44;;;;;;;8.70;3.10;;;;;;;3.10;100.00;96389.75;5077289;28;24430;-75
2023/02/01 08:53:13;;;;;;;22.20;3.08;;;;;;;3.09;100.00;96380.41;5085977;28;25014;-77
2023/02/01 08:55:39;;;;;;;15.13;3.40;;;;;;;3.03;100.00;96398.44;5094076;28;24553;-77
2023/02/01 08:58:06;;;;;;;10.52;3.28;;;;;;;3.13;100.00;96404.19;5102303;28;24441;-77
2023/02/01 09:00:32;;;;;;;11.82;3.70;;;;;;;3.07;100.00;96397.50;5098917;28;24978;-77
2023/02/01 09:03:00;;;;;;;11.00;3.80;;;;;;;3.07;100.00;96402.59;5103652;28;24433;-77
2023/02/01 09:05:28;;;;;;;13.20;4.90;;;;;;;3.06;100.00;96400.94;5103734;28;24441;-78
2023/02/01 09:07:54;;;;;;;11.60;3.40;;;;;;;3.08;100.00;96403.47;5107448;28;24441;-77
2023/02/01 09:10:20;;;;;;;17.02;3.78;;;;;;;3.00;100.00;96405.34;5101121;28;25009;-76
2023/02/01 09:12:47;;;;;;;10.25;3.22;;;;;;;3.03;100.00;96405.28;5098773;28;24457;-76
2023/02/01 09:15:13;;;;;;;11.18;3.53;;;;;;;3.04;100.00;96402.72;5098171;28;24603;-76
2023/02/01 09:17:41;;;;;;;11.18;3.40;;;;;;;3.02;100.00;96401.88;5096298;28;24456;-76
2023/02/01 09:20:11;;;;;;;10.50;3.25;;;;;;;3.04;100.00;96409.50;5109800;28;24437;-78
2023/02/01 09:22:37;;;;;;;12.07;3.93;;;;;;;3.02;100.00;96401.88;5108573;28;24804;-78
2023/02/01 09:25:04;;;;;;;13.30;3.72;;;;;;;3.04;100.00;96395.03;5100467;28;24441;-78
2023/02/01 09:27:31;;;;;;;12.60;3.75;;;;;;;3.08;100.00;96394.06;5096680;28;24446;-78
2023/02/01 09:29:57;;;;;;;11.47;3.63;;;;;;;3.09;100.00;96402.59;5101075;28;24458;-78
2023/02/01 09:32:24;;;;;;;11.97;3.43;;;;;;;3.14;100.00;96406.72;5112486;28;24452;-77
2023/02/01 09:34:52;;;;;;;11.77;3.50;;;;;;;3.19;100.00;96406.63;5093986;28;24443;-77
2023/02/01 09:37:20;;;;;;;15.68;4.40;;;;;;;3.27;100.00;96406.44;5094763;28;24431;-77
2023/02/01 09:39:47;;;;;;;13.50;3.10;;;;;;;3.19;100.00;96411.75;5104379;28;24433;-77
2023/02/01 09:42:26;;;;;;;15.00;3.97;;;;;;;3.21;100.00;96416.81;5100181;28;24533;-77
2023/02/01 09:45:11;;;;;;;12.30;3.88;;;;;;;3.37;100.00;96418.13;5100875;28;24437;-76
2023/02/01 09:47:47;;;;;;;16.33;4.10;;;;;;;3.28;100.00;96421.75;5088308;28;24519;-75
2023/02/01 09:50:19;;;;;;;13.90;3.27;;;;;;;3.33;100.00;96419.06;5103350;28;24452;-77
2023/02/01 09:52:55;;;;;;;12.45;4.03;;;;;;;3.34;100.00;96421.63;5105239;28;24444;-77
2023/02/01 09:55:31;;;;;;;16.05;3.95;;;;;;;3.45;100.00;96428.19;5092817;28;24788;-77
2023/02/01 09:58:02;;;;;;;13.27;3.15;;;;;;;3.44;100.00;96419.66;5098169;28;24433;-77
2023/02/01 10:00:30;;;;;;;12.73;3.33;;;;;;;3.47;100.00;96423.88;5091764;28;24440;-78
2023/02/01 10:02:58;;;;;;;18.67;4.22;;;;;;;3.50;100.00;96422.06;5104805;28;24440;-78
2023/02/01 10:05:39;;;;;;;13.50;3.60;;;;;;;3.58;100.00;96425.28;5095435;28;24831;-77
2023/02/01 10:08:20;;;;;;;10.98;3.28;;;;;;;3.57;100.00;96426.16;5102282;28;24801;-77
2023/02/01 10:10:49;;;;;;;12.75;4.00;;;;;;;3.56;100.00;96429.63;5080989;28;24454;-76
2023/02/01 10:13:35;;;;;;;11.35;3.33;;;;;;;3.55;100.00;96434.75;5102281;28;24449;-76
2023/02/01 10:16:18;;;;;;;16.23;3.55;;;;;;;3.51;100.00;96454.47;5093232;28;24446;-75
2023/02/01 10:19:11;;;;;;;13.15;3.28;;;;;;;3.60;100.00;96448.31;5105698;28;24820;-77
2023/02/01 10:21:51;;;;;;;19.08;3.28;;;;;;;3.56;100.00;96457.78;5093954;28;24437;-78
2023/02/01 10:24:34;;;;;;;11.15;3.20;;;;;;;3.51;100.00;96458.75;5104335;28;24449;-76
2023/02/01 10:27:07;;;;;;;10.85;2.90;;;;;;;3.59;100.00;96469.66;5103271;28;25067;-77
2023/02/01 10:29:37;;;;;;;12.25;3.17;;;;;;;3.53;100.00;96478.34;5099936;28;24446;-76
2023/02/01 10:32:10;;;;;;;13.07;3.53;;;;;;;3.43;100.00;96476.03;5103616;28;24854;-78
2023/02/01 10:34:37;;;;;;;23.27;3.90;;;;;;;3.56;100.00;96475.72;5100521;28;24477;-77
2023/02/01 10:37:19;;;;;;;17.67;3.67;;;;;;;3.51;100.00;96472.41;5094129;28;24441;-78
2023/02/01 10:39:48;;;;;;;15.20;4.07;;;;;;;3.60;100.00;96464.53;5104504;28;24438;-77
2023/02/01 10:42:15;;;;;;;11.20;3.10;;;;;;;3.54;100.00;96469.78;5104360;28;24445;-76
2023/02/01 10:44:47;;;;;;;13.83;3.43;;;;;;;3.55;100.00;96465.50;5102294;28;24482;-77
2023/02/01 10:47:15;;;;;;;11.98;3.55;;;;;;;3.53;100.00;96454.47;5096525;28;24435;-76
2023/02/01 10:49:48;;;;;;;14.37;3.90;;;;;;;3.55;100.00;96465.50;5102187;28;24454;-76
2023/02/01 10:52:17;;;;;;;12.02;3.03;;;;;;;3.62;100.00;96452.50;5097999;28;24438;-76
2023/02/01 10:54:44;;;;;;;12.57;3.53;;;;;;;3.55;100.00;96456.09;5091879;28;24441;-76
2023/02/01 10:57:23;;;;;;;13.63;3.10;;;;;;;3.58;100.00;96450.06;5096766;28;24434;-76
2023/02/01 10:59:50;;;;;;;9.97;2.70;;;;;;;3.61;100.00;96450.81;5089931;28;25085;-74
2023/02/01 11:02:26;;;;;;;14.77;3.65;;;;;;;3.59;100.00;96438.94;5092477;28;24442;-75
2023/02/01 11:05:00;;;;;;;12.40;3.05;;;;;;;3.64;100.00;96443.06;5089592;28;24434;-75
2023/02/01 11:07:27;;;;;;;12.57;3.55;;;;;;;3.47;100.00;96449.47;5091958;28;24426;-75
2023/02/01 11:09:56;;;;;;;11.20;3.00;;;;;;;3.57;100.00;96451.78;5098656;28;24452;-75
2023/02/01 11:12:32;;;;;;;14.07;3.58;;;;;;;3.59;100.00;96456.84;5087434;28;24788;-75
2023/02/01 11:15:03;;;;;;;14.98;3.13;;;;;;;3.49;100.00;96453.69;5095183;28;25025;-75
2023/02/01 11:17:37;;;;;;;12.73;3.30;;;;;;;3.55;100.00;96456.09;5093743;28;25055;-76
2023/02/01 11:20:06;;;;;;;17.48;3.63;;;;;;;3.51;100.00;96444.25;5101176;28;24856;-75
2023/02/01 11:22:33;;;;;;;9.73;2.88;;;;;;;3.54;100.00;96444.16;5098259;28;24437;-75
2023/02/01 11:25:08;;;;;;;8.03;3.27;;;;;;;3.54;100.00;96446.72;5101363;28;24504;-75
2023/02/01 11:27:36;;;;;;;16.85;3.28;;;;;;;3.60;100.00;96430.38;5095424;28;24441;-75
2023/02/01 11:30:04;;;;;;;13.83;3.40;;;;;;;3.70;100.00;96428.41;5096400;28;24816;-75
2023/02/01 11:32:31;;;;;;;10.65;3.25;;;;;;;3.72;100.00;96434.34;5102423;28;25002;-75
2023/02/01 11:35:02;;;;;;;15.80;3.42;;;;;;;3.48;100.00;96428.94;5098198;28;24800;-75
2023/02/01 11:37:33;;;;;;;12.13;2.97;;;;;;;3.54;100.00;96405.75;5089083;28;24488;-74
2023/02/01 11:40:03;;;;;;;14.90;3.53;;;;;;;3.56;100.00;96419.38;5095058;28;24976;-75
2023/02/01 11:42:33;;;;;;;19.98;3.65;;;;;;;3.54;100.00;96408.31;5084786;28;24452;-74
2023/02/01 11:45:20;;;;;;;11.23;3.25;;;;;;;3.58;100.00;96409.91;5097512;28;24801;-74
2023/02/01 11:47:46;;;;;;;10.77;3.22;;;;;;;3.71;100.00;96401.91;5098981;28;24430;-75
2023/02/01 11:50:17;;;;;;;14.57;3.33;;;;;;;3.61;100.00;96379.09;5092537;28;24529;-74
2023/02/01 11:52:56;;;;;;;9.07;3.10;;;;;;;3.53;100.00;96375.91;5091663;28;24995;-76
2023/02/01 11:55:43;;;;;;;13.38;3.45;;;;;;;3.50;100.00;96381.09;5087451;28;24472;-75
2023/02/01 11:58:36;;;;;;;12.38;3.13;;;;;;;3.46;100.00;96376.09;5100412;28;24984;-75
2023/02/01 12:01:17;;;;;;;9.18;2.80;;;;;;;3.51;100.00;96376.81;5096908;28;24433;-75
2023/02/01 12:04:19;;;;;;;14.30;3.47;;;;;;;3.47;100.00;96359.84;5091348;28;24442;-75
2023/02/01 12:06:50;;;;;;;10.77;3.10;;;;;;;3.55;100.00;96370.72;5099378;28;24445;-73